Time;durP1;ratioP1;P1;durP2;ratioP2;P2;SDS_P1;SDS_P2;PMS_P1;PMS_P2;Temp;Humidity;BMP_temperature;BMP_pressure;BME280_temperature;BME280_humidity;BME280_pressure;Samples;Min_cycle;Max_cycle;Signal;HPM_P1;HPM_P2
2021/12/12 00:00:57;;;;;;;7.30;5.47;;;;;;;;;;6188396;23;20198;-92
2021/12/12 00:03:35;;;;;;;7.33;5.03;;;;;;;;;;6187506;23;20179;-93
2021/12/12 00:06:05;;;;;;;7.93;5.80;;;;;;;;;;6197004;23;20197;-92
2021/12/12 00:08:32;;;;;;;7.27;5.37;;;;;;;;;;6200168;23;20178;-90
2021/12/12 00:11:01;;;;;;;7.77;5.80;;;;;;;;;;6200120;23;20247;-93
2021/12/12 00:13:34;;;;;;;7.00;5.53;;;;;;;;;;6201148;23;20185;-94
2021/12/12 00:16:01;;;;;;;8.13;5.07;;;;;;;;;;6198696;23;20233;-92
2021/12/12 00:18:30;;;;;;;6.93;5.50;;;;;;;;;;6202276;23;20170;-92
2021/12/12 00:20:57;;;;;;;8.00;5.70;;;;;;;;;;6202532;23;20206;-93
2021/12/12 00:23:24;;;;;;;8.53;6.00;;;;;;;;;;6202890;23;20174;-90
2021/12/12 00:25:54;;;;;;;6.20;5.07;;;;;;;;;;6201676;23;20178;-92
2021/12/12 00:28:22;;;;;;;8.73;5.70;;;;;;;;;;6203459;23;20421;-93
2021/12/12 00:30:50;;;;;;;9.83;5.10;;;;;;;;;;6185078;23;20232;-93
2021/12/12 00:33:18;;;;;;;8.37;5.33;;;;;;;;;;6185980;23;20233;-91
2021/12/12 00:36:00;;;;;;;5.80;5.03;;;;;;;;;;6186093;23;20178;-92
2021/12/12 00:38:30;;;;;;;6.13;5.07;;;;;;;;;;6183795;23;20554;-91
2021/12/12 00:40:59;;;;;;;6.87;5.20;;;;;;;;;;6185005;23;20253;-92
2021/12/12 00:43:27;;;;;;;6.70;4.83;;;;;;;;;;6185204;23;20175;-92
2021/12/12 00:45:56;;;;;;;8.13;5.03;;;;;;;;;;6185951;23;20174;-92
2021/12/12 00:48:24;;;;;;;6.03;4.77;;;;;;;;;;6185446;23;20181;-92
2021/12/12 00:50:52;;;;;;;6.00;4.00;;;;;;;;;;6185517;23;20194;-92
2021/12/12 00:53:22;;;;;;;3.83;3.30;;;;;;;;;;6185554;23;20515;-92
2021/12/12 00:55:52;;;;;;;5.37;3.83;;;;;;;;;;6186230;23;20182;-92
2021/12/12 00:58:20;;;;;;;4.23;3.80;;;;;;;;;;6185209;23;20249;-92
2021/12/12 01:00:50;;;;;;;4.60;3.73;;;;;;;;;;6185182;23;20281;-93
2021/12/12 01:03:18;;;;;;;4.77;3.80;;;;;;;;;;6185695;23;20684;-92
2021/12/12 01:05:47;;;;;;;5.10;3.97;;;;;;;;;;6186220;23;20723;-92
2021/12/12 01:08:15;;;;;;;4.47;3.47;;;;;;;;;;6184422;23;20178;-92
2021/12/12 01:10:44;;;;;;;4.60;3.73;;;;;;;;;;6185769;23;20202;-92
2021/12/12 01:13:13;;;;;;;5.17;3.53;;;;;;;;;;6186505;23;20182;-92
2021/12/12 01:15:42;;;;;;;6.37;3.83;;;;;;;;;;6185496;23;20178;-91
2021/12/12 01:18:10;;;;;;;4.97;4.10;;;;;;;;;;6185313;23;20233;-92
2021/12/12 01:20:40;;;;;;;4.97;3.60;;;;;;;;;;6183237;23;20207;-93
2021/12/12 01:23:11;;;;;;;4.67;3.43;;;;;;;;;;6184589;23;20187;-92
2021/12/12 01:25:44;;;;;;;4.77;3.77;;;;;;;;;;6185441;23;20182;-92
2021/12/12 01:28:14;;;;;;;4.87;3.67;;;;;;;;;;6185456;23;20201;-92
2021/12/12 01:30:42;;;;;;;8.83;4.13;;;;;;;;;;6185060;23;20836;-93
2021/12/12 01:33:11;;;;;;;6.30;4.10;;;;;;;;;;6184975;23;20194;-92
2021/12/12 01:35:38;;;;;;;4.37;3.83;;;;;;;;;;6185546;23;20554;-92
2021/12/12 01:41:00;;;;;;;5.93;4.40;;;;;;;;;;6114688;23;20211;-92
2021/12/12 01:43:32;;;;;;;6.10;4.07;;;;;;;;;;6184476;23;20183;-93
2021/12/12 01:46:02;;;;;;;5.20;4.00;;;;;;;;;;6184781;23;20174;-93
2021/12/12 01:48:31;;;;;;;6.50;4.40;;;;;;;;;;6185179;23;20241;-92
2021/12/12 01:51:00;;;;;;;5.17;4.13;;;;;;;;;;6185430;23;20195;-93
2021/12/12 01:53:29;;;;;;;6.50;3.73;;;;;;;;;;6185376;23;20182;-91
2021/12/12 01:56:04;;;;;;;5.50;4.00;;;;;;;;;;6185628;23;20179;-92
2021/12/12 01:58:34;;;;;;;5.73;4.30;;;;;;;;;;6185860;23;20245;-92
2021/12/12 02:01:03;;;;;;;4.27;3.83;;;;;;;;;;6183459;23;20206;-92
2021/12/12 02:03:33;;;;;;;4.97;3.50;;;;;;;;;;6184211;23;20522;-92
2021/12/12 02:06:01;;;;;;;5.53;4.10;;;;;;;;;;6184969;23;20182;-92
2021/12/12 02:08:30;;;;;;;6.93;4.00;;;;;;;;;;6185375;23;20179;-93
2021/12/12 02:10:59;;;;;;;6.27;4.67;;;;;;;;;;6184241;23;20518;-92
2021/12/12 02:13:27;;;;;;;6.43;4.40;;;;;;;;;;6185158;23;20179;-92
2021/12/12 02:15:57;;;;;;;5.57;3.50;;;;;;;;;;6185355;23;20181;-92
2021/12/12 02:18:29;;;;;;;4.97;4.10;;;;;;;;;;6185196;23;20167;-93
2021/12/12 02:21:07;;;;;;;6.10;4.37;;;;;;;;;;6184397;23;20209;-92
2021/12/12 02:23:48;;;;;;;5.13;3.83;;;;;;;;;;6185042;23;20198;-92
2021/12/12 02:37:12;;;;;;;4.50;3.70;;;;;;;;;;6184128;23;20158;-93
2021/12/12 02:39:42;;;;;;;5.97;3.93;;;;;;;;;;6184162;23;20207;-92
2021/12/12 02:42:15;;;;;;;4.17;3.77;;;;;;;;;;6184913;23;20178;-92
2021/12/12 02:44:44;;;;;;;4.03;3.50;;;;;;;;;;6184744;23;20620;-91
2021/12/12 02:47:14;;;;;;;4.40;3.70;;;;;;;;;;6184090;23;20185;-92
2021/12/12 02:49:54;;;;;;;6.40;4.50;;;;;;;;;;6184569;23;20201;-92
2021/12/12 02:52:23;;;;;;;4.70;3.50;;;;;;;;;;6184454;23;20562;-92
2021/12/12 02:54:52;;;;;;;6.00;3.90;;;;;;;;;;6184499;23;20175;-92
2021/12/12 02:57:19;;;;;;;6.63;4.13;;;;;;;;;;6183700;23;20179;-92
2021/12/12 02:59:50;;;;;;;5.80;4.10;;;;;;;;;;6184439;23;20249;-92
2021/12/12 03:02:21;;;;;;;6.13;4.37;;;;;;;;;;6184650;23;20179;-92
2021/12/12 03:04:48;;;;;;;6.07;4.27;;;;;;;;;;6184155;23;20178;-92
2021/12/12 03:07:16;;;;;;;6.33;4.23;;;;;;;;;;6184484;23;20179;-92
2021/12/12 03:09:44;;;;;;;5.03;4.00;;;;;;;;;;6184186;23;20261;-92
2021/12/12 03:12:14;;;;;;;4.93;4.13;;;;;;;;;;6183949;23;20183;-92
2021/12/12 03:14:42;;;;;;;6.47;3.90;;;;;;;;;;6183793;23;20538;-92
2021/12/12 03:17:11;;;;;;;5.13;3.93;;;;;;;;;;6183978;23;20680;-92
2021/12/12 03:19:42;;;;;;;4.67;3.67;;;;;;;;;;6182744;23;20205;-94
2021/12/12 03:22:10;;;;;;;6.63;4.23;;;;;;;;;;6183346;23;20182;-92
2021/12/12 03:24:38;;;;;;;5.23;3.80;;;;;;;;;;6186295;23;20179;-92
2021/12/12 03:27:06;;;;;;;5.63;3.70;;;;;;;;;;6186119;23;20178;-92
2021/12/12 03:29:35;;;;;;;4.20;3.43;;;;;;;;;;6185258;23;20195;-92
2021/12/12 03:32:05;;;;;;;5.40;3.83;;;;;;;;;;6185749;23;20186;-92
2021/12/12 03:34:34;;;;;;;3.40;3.10;;;;;;;;;;6186558;23;20633;-92
2021/12/12 03:37:02;;;;;;;4.47;3.60;;;;;;;;;;6185756;23;20179;-92
2021/12/12 03:39:30;;;;;;;4.53;3.20;;;;;;;;;;6186281;23;20198;-91
2021/12/12 03:42:00;;;;;;;4.70;3.53;;;;;;;;;;6186064;23;20174;-92
2021/12/12 03:44:30;;;;;;;4.97;3.30;;;;;;;;;;6186281;23;20241;-92
2021/12/12 03:47:04;;;;;;;3.47;3.00;;;;;;;;;;6185627;23;20182;-92
2021/12/12 03:49:32;;;;;;;4.23;3.07;;;;;;;;;;6186180;23;20198;-92
2021/12/12 03:52:01;;;;;;;3.47;3.17;;;;;;;;;;6186120;23;20879;-93
2021/12/12 03:54:28;;;;;;;6.20;3.80;;;;;;;;;;6185575;23;20209;-91
2021/12/12 03:56:55;;;;;;;4.27;3.47;;;;;;;;;;6185770;23;20174;-92
2021/12/12 03:59:23;;;;;;;3.73;3.07;;;;;;;;;;6185920;23;20246;-93
2021/12/12 04:01:52;;;;;;;4.07;3.07;;;;;;;;;;6185311;23;20194;-92
2021/12/12 04:04:23;;;;;;;3.33;2.93;;;;;;;;;;6186113;23;20174;-93
2021/12/12 04:06:52;;;;;;;4.77;3.70;;;;;;;;;;6185993;23;20170;-92
2021/12/12 04:09:20;;;;;;;5.73;3.40;;;;;;;;;;6186394;23;20197;-92
2021/12/12 04:11:48;;;;;;;4.73;3.30;;;;;;;;;;6185868;23;20202;-92
2021/12/12 04:14:16;;;;;;;5.23;3.17;;;;;;;;;;6185940;23;20178;-92
2021/12/12 04:16:45;;;;;;;3.47;3.07;;;;;;;;;;6186547;23;20178;-92
2021/12/12 04:19:13;;;;;;;4.43;3.03;;;;;;;;;;6185721;23;20186;-92
2021/12/12 04:21:42;;;;;;;3.43;2.70;;;;;;;;;;6185678;23;20191;-92
2021/12/12 04:24:10;;;;;;;3.57;3.00;;;;;;;;;;6185392;23;20539;-92
2021/12/12 04:26:38;;;;;;;3.27;2.90;;;;;;;;;;6185652;23;20245;-92
2021/12/12 04:29:07;;;;;;;3.67;3.27;;;;;;;;;;6185235;23;20485;-92
2021/12/12 04:31:35;;;;;;;4.37;3.17;;;;;;;;;;6185562;23;20202;-92
2021/12/12 04:34:03;;;;;;;4.67;3.30;;;;;;;;;;6185469;23;20179;-92
2021/12/12 04:36:31;;;;;;;4.20;3.80;;;;;;;;;;6185612;23;20257;-92
2021/12/12 04:39:01;;;;;;;5.33;3.63;;;;;;;;;;6198442;23;20241;-90
2021/12/12 04:41:29;;;;;;;6.20;4.17;;;;;;;;;;6202087;23;20238;-92
2021/12/12 04:43:56;;;;;;;4.80;3.93;;;;;;;;;;6202324;23;20179;-91
2021/12/12 04:46:36;;;;;;;5.57;3.50;;;;;;;;;;6202164;23;20175;-92
2021/12/12 04:51:49;;;;;;;5.27;3.43;;;;;;;;;;6202527;23;20202;-93
2021/12/12 04:54:23;;;;;;;4.60;3.10;;;;;;;;;;6202438;23;20178;-91
2021/12/12 04:56:54;;;;;;;4.03;2.70;;;;;;;;;;6200131;23;20174;-91
2021/12/12 04:59:25;;;;;;;3.13;2.63;;;;;;;;;;6201933;23;20167;-92
2021/12/12 05:01:57;;;;;;;3.53;2.87;;;;;;;;;;6202053;23;20199;-90
2021/12/12 05:04:26;;;;;;;2.63;2.43;;;;;;;;;;6200739;23;20170;-91
2021/12/12 05:06:57;;;;;;;3.73;2.63;;;;;;;;;;6201625;23;20179;-94
2021/12/12 05:09:29;;;;;;;3.63;3.13;;;;;;;;;;6202500;23;20198;-91
2021/12/12 05:11:59;;;;;;;3.67;2.97;;;;;;;;;;6201366;23;20167;-91
2021/12/12 05:14:28;;;;;;;3.63;2.63;;;;;;;;;;6187241;23;20182;-92
2021/12/12 05:17:04;;;;;;;3.90;3.10;;;;;;;;;;6184934;23;20563;-92
2021/12/12 05:19:32;;;;;;;5.20;3.30;;;;;;;;;;6185617;23;20198;-92
2021/12/12 05:22:01;;;;;;;3.40;2.77;;;;;;;;;;6184724;23;20199;-92
2021/12/12 05:24:31;;;;;;;6.67;3.80;;;;;;;;;;6185495;23;20174;-91
2021/12/12 05:27:00;;;;;;;3.57;3.00;;;;;;;;;;6190952;23;20229;-93
2021/12/12 05:29:29;;;;;;;3.97;3.07;;;;;;;;;;6188171;23;20171;-92
2021/12/12 05:31:57;;;;;;;3.67;3.20;;;;;;;;;;6186799;23;20540;-92
2021/12/12 05:34:28;;;;;;;3.43;3.03;;;;;;;;;;6186075;23;20179;-92
2021/12/12 05:36:57;;;;;;;4.57;2.70;;;;;;;;;;6184922;23;20250;-92
2021/12/12 05:39:24;;;;;;;2.83;2.53;;;;;;;;;;6184775;23;20175;-92
2021/12/12 05:41:54;;;;;;;3.13;2.83;;;;;;;;;;6185250;23;20214;-92
2021/12/12 05:44:23;;;;;;;4.10;2.90;;;;;;;;;;6185571;23;20633;-93
2021/12/12 05:46:51;;;;;;;3.63;2.60;;;;;;;;;;6184930;23;20182;-93
2021/12/12 05:49:18;;;;;;;4.77;3.20;;;;;;;;;;6185051;23;20186;-92
2021/12/12 05:51:45;;;;;;;5.40;2.90;;;;;;;;;;6186314;23;20428;-94
2021/12/12 05:54:13;;;;;;;3.83;2.43;;;;;;;;;;6187554;23;20209;-93
2021/12/12 05:56:41;;;;;;;3.07;2.53;;;;;;;;;;6187521;23;20182;-93
2021/12/12 05:59:11;;;;;;;5.37;2.90;;;;;;;;;;6199274;23;20189;-92
2021/12/12 06:01:41;;;;;;;4.27;2.47;;;;;;;;;;6203518;23;20222;-92
2021/12/12 06:04:09;;;;;;;3.60;2.60;;;;;;;;;;6204100;23;20193;-91
2021/12/12 06:06:41;;;;;;;3.53;3.00;;;;;;;;;;6203841;23;20178;-92
2021/12/12 06:09:09;;;;;;;3.60;2.80;;;;;;;;;;6204863;23;20171;-93
2021/12/12 06:11:38;;;;;;;3.37;3.00;;;;;;;;;;6202426;23;20233;-93
2021/12/12 06:14:07;;;;;;;3.37;2.40;;;;;;;;;;6203393;23;20178;-93
2021/12/12 06:16:37;;;;;;;3.27;2.90;;;;;;;;;;6203541;23;20178;-93
2021/12/12 06:19:07;;;;;;;3.10;2.80;;;;;;;;;;6202842;23;20170;-93
2021/12/12 06:21:35;;;;;;;5.40;2.73;;;;;;;;;;6201155;23;20195;-93
2021/12/12 06:24:02;;;;;;;3.70;2.83;;;;;;;;;;6203985;23;20178;-91
2021/12/12 06:26:30;;;;;;;5.07;3.07;;;;;;;;;;6203261;23;20179;-91
2021/12/12 06:28:57;;;;;;;5.10;3.17;;;;;;;;;;6199460;23;20178;-92
2021/12/12 06:31:25;;;;;;;5.57;3.10;;;;;;;;;;6187855;23;20206;-93
2021/12/12 06:33:55;;;;;;;3.70;3.27;;;;;;;;;;6187678;23;20233;-92
2021/12/12 06:36:23;;;;;;;4.87;3.20;;;;;;;;;;6189011;23;20171;-92
2021/12/12 06:38:51;;;;;;;3.27;2.97;;;;;;;;;;6184531;23;20182;-92
2021/12/12 06:41:20;;;;;;;2.93;2.73;;;;;;;;;;6184616;23;20198;-91
2021/12/12 06:43:47;;;;;;;2.80;2.43;;;;;;;;;;6186754;23;20178;-91
2021/12/12 06:46:14;;;;;;;5.17;3.13;;;;;;;;;;6187239;23;20205;-90
2021/12/12 06:48:45;;;;;;;4.97;2.73;;;;;;;;;;6189229;23;20174;-92
2021/12/12 06:51:14;;;;;;;3.97;2.97;;;;;;;;;;6185352;23;20197;-92
2021/12/12 06:53:46;;;;;;;3.03;2.60;;;;;;;;;;6197574;23;20745;-93
2021/12/12 06:56:16;;;;;;;2.77;2.57;;;;;;;;;;6197818;23;20210;-95
2021/12/12 06:58:48;;;;;;;4.43;2.73;;;;;;;;;;6202019;23;20175;-94
2021/12/12 07:01:17;;;;;;;3.10;2.80;;;;;;;;;;6198119;23;20214;-93
2021/12/12 07:03:44;;;;;;;3.80;2.33;;;;;;;;;;6199737;23;20178;-94
2021/12/12 07:06:12;;;;;;;3.67;2.57;;;;;;;;;;6198262;23;20179;-95
2021/12/12 07:08:41;;;;;;;3.40;2.60;;;;;;;;;;6199914;23;20222;-96
2021/12/12 07:11:08;;;;;;;2.97;2.20;;;;;;;;;;6198387;23;20748;-91
2021/12/12 07:13:36;;;;;;;3.07;2.33;;;;;;;;;;6201316;23;20167;-91
2021/12/12 07:16:06;;;;;;;3.30;2.57;;;;;;;;;;6202102;23;20179;-95
2021/12/12 07:18:36;;;;;;;3.93;3.17;;;;;;;;;;6196935;23;20178;-95
2021/12/12 07:21:06;;;;;;;3.00;2.30;;;;;;;;;;6197461;23;20203;-95
2021/12/12 07:23:34;;;;;;;3.60;2.90;;;;;;;;;;6195515;23;20179;-95
2021/12/12 07:26:19;;;;;;;2.60;2.40;;;;;;;;;;6197399;23;20178;-92
2021/12/12 07:28:54;;;;;;;2.50;2.30;;;;;;;;;;6184848;23;20179;-93
2021/12/12 07:31:24;;;;;;;2.33;2.10;;;;;;;;;;6184429;23;20198;-92
2021/12/12 07:33:55;;;;;;;2.57;2.23;;;;;;;;;;6186390;23;20182;-93
2021/12/12 07:36:23;;;;;;;3.07;2.73;;;;;;;;;;6184868;23;20177;-94
2021/12/12 07:38:56;;;;;;;6.63;3.20;;;;;;;;;;6187565;23;20178;-92
2021/12/12 07:41:29;;;;;;;3.20;2.70;;;;;;;;;;6186006;23;20198;-94
2021/12/12 07:43:59;;;;;;;3.33;2.63;;;;;;;;;;6188599;23;20167;-94
2021/12/12 07:46:27;;;;;;;3.03;2.57;;;;;;;;;;6189892;23;20190;-95
2021/12/12 07:48:56;;;;;;;3.53;2.90;;;;;;;;;;6190502;23;20610;-95
2021/12/12 07:51:24;;;;;;;5.00;2.70;;;;;;;;;;6188914;23;20202;-93
2021/12/12 07:53:53;;;;;;;2.33;2.07;;;;;;;;;;6190396;23;20191;-94
2021/12/12 07:56:21;;;;;;;2.60;2.40;;;;;;;;;;6191976;23;20178;-94
2021/12/12 07:58:49;;;;;;;4.27;3.23;;;;;;;;;;6192834;23;20179;-93
2021/12/12 08:01:18;;;;;;;4.70;3.27;;;;;;;;;;6190581;23;20209;-94
2021/12/12 08:03:46;;;;;;;2.77;2.33;;;;;;;;;;6191367;23;20182;-95
2021/12/12 08:06:15;;;;;;;4.27;2.90;;;;;;;;;;6192095;23;20183;-94
2021/12/12 08:08:44;;;;;;;2.70;2.20;;;;;;;;;;6188742;23;20182;-93
2021/12/12 08:11:11;;;;;;;3.37;2.97;;;;;;;;;;6186358;23;20237;-92
2021/12/12 08:13:39;;;;;;;2.70;2.50;;;;;;;;;;6186111;23;20240;-93
2021/12/12 08:16:08;;;;;;;3.70;2.67;;;;;;;;;;6186031;23;20182;-93
2021/12/12 08:18:39;;;;;;;3.90;2.97;;;;;;;;;;6186200;23;20174;-93
2021/12/12 08:21:08;;;;;;;4.97;3.33;;;;;;;;;;6185938;23;20199;-92
2021/12/12 08:23:35;;;;;;;3.93;2.97;;;;;;;;;;6186112;23;20517;-94
2021/12/12 08:26:03;;;;;;;3.80;3.23;;;;;;;;;;6186429;23;20174;-93
2021/12/12 08:28:31;;;;;;;5.03;2.97;;;;;;;;;;6186841;23;20174;-93
2021/12/12 08:30:59;;;;;;;4.27;2.87;;;;;;;;;;6186128;23;20207;-93
2021/12/12 08:33:26;;;;;;;6.97;3.20;;;;;;;;;;6186370;23;20186;-92
2021/12/12 08:35:56;;;;;;;3.33;2.90;;;;;;;;;;6186160;23;20178;-91
2021/12/12 08:38:23;;;;;;;3.73;3.30;;;;;;;;;;6186363;23;20179;-93
2021/12/12 08:40:53;;;;;;;3.20;2.90;;;;;;;;;;6186350;23;20198;-91
2021/12/12 08:43:21;;;;;;;3.33;3.00;;;;;;;;;;6186116;23;20198;-91
2021/12/12 08:45:50;;;;;;;4.53;3.10;;;;;;;;;;6185876;23;20198;-92
2021/12/12 08:48:19;;;;;;;3.20;3.00;;;;;;;;;;6186024;23;20179;-91
2021/12/12 08:50:48;;;;;;;7.83;3.73;;;;;;;;;;6185758;23;20249;-91
2021/12/12 08:53:18;;;;;;;4.73;3.23;;;;;;;;;;6185837;23;20182;-91
2021/12/12 08:55:48;;;;;;;4.73;3.63;;;;;;;;;;6186200;23;20779;-91
2021/12/12 08:58:17;;;;;;;5.00;3.53;;;;;;;;;;6186129;23;20171;-91
2021/12/12 09:00:47;;;;;;;5.10;3.40;;;;;;;;;;6185444;23;20587;-92
2021/12/12 09:03:17;;;;;;;3.57;3.00;;;;;;;;;;6186093;23;20218;-92
2021/12/12 09:05:45;;;;;;;5.30;3.53;;;;;;;;;;6185873;23;20185;-91
2021/12/12 09:08:14;;;;;;;4.07;3.33;;;;;;;;;;6185676;23;20194;-91
2021/12/12 09:10:45;;;;;;;3.57;3.23;;;;;;;;;;6185884;23;20218;-91
2021/12/12 09:13:14;;;;;;;4.60;3.20;;;;;;;;;;6192523;23;20175;-92
2021/12/12 09:15:43;;;;;;;3.80;3.17;;;;;;;;;;6208133;23;20175;-92
2021/12/12 09:18:14;;;;;;;4.27;3.20;;;;;;;;;;6185745;23;20248;-92
2021/12/12 09:20:48;;;;;;;9.40;6.10;;;;;;;;;;6185619;23;20194;-92
2021/12/12 09:23:22;;;;;;;5.63;3.47;;;;;;;;;;6207554;23;20190;-92
2021/12/12 09:25:53;;;;;;;8.97;4.47;;;;;;;;;;6204868;23;20166;-91
2021/12/12 09:28:26;;;;;;;3.83;3.30;;;;;;;;;;6188955;23;20201;-93
2021/12/12 09:30:55;;;;;;;5.43;3.77;;;;;;;;;;6191398;23;20269;-91
2021/12/12 09:33:26;;;;;;;4.07;3.23;;;;;;;;;;6195746;23;20210;-91
2021/12/12 09:35:55;;;;;;;4.67;3.27;;;;;;;;;;6200654;23;20229;-92
2021/12/12 09:38:25;;;;;;;3.87;3.23;;;;;;;;;;6190890;23;20241;-92
2021/12/12 09:41:12;;;;;;;4.97;3.57;;;;;;;;;;6185607;23;20291;-92
2021/12/12 09:43:53;;;;;;;3.60;3.30;;;;;;;;;;6185100;23;20676;-92
2021/12/12 09:46:40;;;;;;;3.63;2.93;;;;;;;;;;6185805;23;20504;-91
2021/12/12 09:52:28;;;;;;;3.73;3.30;;;;;;;;;;6185406;23;20207;-92
2021/12/12 09:55:01;;;;;;;4.30;3.50;;;;;;;;;;6176427;23;20202;-91
2021/12/12 09:57:33;;;;;;;4.20;3.40;;;;;;;;;;6185223;23;20190;-92
2021/12/12 10:00:07;;;;;;;2.40;1.77;;;;;;;;;;6185512;23;20206;-93
2021/12/12 10:02:36;;;;;;;6.37;4.10;;;;;;;;;;6185640;23;20191;-91
2021/12/12 10:05:08;;;;;;;5.47;3.80;;;;;;;;;;6185178;23;20179;-91
2021/12/12 10:07:41;;;;;;;4.97;3.57;;;;;;;;;;6185522;23;20181;-91
2021/12/12 10:10:11;;;;;;;6.47;3.10;;;;;;;;;;6184917;23;20199;-92
2021/12/12 10:12:42;;;;;;;3.37;3.07;;;;;;;;;;6185386;23;20241;-91
2021/12/12 10:15:13;;;;;;;2.93;2.63;;;;;;;;;;6185310;23;20308;-92
2021/12/12 10:17:42;;;;;;;3.50;2.90;;;;;;;;;;6184966;23;20175;-92
2021/12/12 10:20:13;;;;;;;2.40;2.20;;;;;;;;;;6185265;23;20528;-91
2021/12/12 10:22:47;;;;;;;3.10;2.80;;;;;;;;;;6185394;23;20253;-92
2021/12/12 10:25:16;;;;;;;3.40;3.10;;;;;;;;;;6184988;23;20178;-92
2021/12/12 10:27:48;;;;;;;3.20;2.90;;;;;;;;;;6185189;23;20633;-92
2021/12/12 10:30:17;;;;;;;4.57;3.13;;;;;;;;;;6184502;23;20198;-93
2021/12/12 10:32:52;;;;;;;3.67;3.23;;;;;;;;;;6184249;23;20225;-93
2021/12/12 10:35:20;;;;;;;5.70;3.10;;;;;;;;;;6184997;23;20249;-92
2021/12/12 10:37:52;;;;;;;4.60;3.17;;;;;;;;;;6185021;23;20175;-92
2021/12/12 10:40:21;;;;;;;4.13;3.23;;;;;;;;;;6184902;23;20201;-91
2021/12/12 10:42:52;;;;;;;4.47;3.43;;;;;;;;;;6185025;23;20199;-92
2021/12/12 10:45:20;;;;;;;6.10;4.37;;;;;;;;;;6184856;23;20171;-91
2021/12/12 10:47:51;;;;;;;5.47;3.73;;;;;;;;;;6185065;23;20182;-91
2021/12/12 10:50:20;;;;;;;5.40;4.37;;;;;;;;;;6184663;23;20198;-91
2021/12/12 10:52:52;;;;;;;6.07;4.50;;;;;;;;;;6184369;23;20229;-92
2021/12/12 10:55:22;;;;;;;4.50;3.17;;;;;;;;;;6184722;23;20174;-92
2021/12/12 10:58:00;;;;;;;3.77;3.07;;;;;;;;;;6184434;23;20185;-91
2021/12/12 11:00:45;;;;;;;3.97;2.87;;;;;;;;;;6184398;23;20217;-92
2021/12/12 11:03:13;;;;;;;4.60;3.30;;;;;;;;;;6184352;23;20191;-92
2021/12/12 11:05:42;;;;;;;3.80;3.03;;;;;;;;;;6184765;23;20175;-92
2021/12/12 11:08:12;;;;;;;5.10;2.73;;;;;;;;;;6184733;23;20178;-91
2021/12/12 11:10:41;;;;;;;4.17;2.93;;;;;;;;;;6184943;23;20261;-91
2021/12/12 11:13:16;;;;;;;5.10;2.80;;;;;;;;;;6185258;23;20232;-91
2021/12/12 11:16:02;;;;;;;3.87;3.00;;;;;;;;;;6184431;23;20174;-92
2021/12/12 11:18:31;;;;;;;3.00;2.73;;;;;;;;;;6188313;23;20167;-91
2021/12/12 11:21:04;;;;;;;3.60;3.20;;;;;;;;;;6184836;23;20195;-91
2021/12/12 11:23:34;;;;;;;3.07;2.63;;;;;;;;;;6185143;23;20217;-91
2021/12/12 11:26:21;;;;;;;2.93;2.63;;;;;;;;;;6185128;23;20225;-93
2021/12/12 11:28:52;;;;;;;3.83;2.43;;;;;;;;;;6185018;23;20166;-91
2021/12/12 11:31:24;;;;;;;4.43;3.00;;;;;;;;;;6184911;23;20206;-92
2021/12/12 11:33:52;;;;;;;4.73;3.00;;;;;;;;;;6184712;23;20173;-92
2021/12/12 11:36:22;;;;;;;2.43;2.20;;;;;;;;;;6184791;23;20182;-91
2021/12/12 11:38:52;;;;;;;3.50;2.80;;;;;;;;;;6184978;23;20553;-91
2021/12/12 11:41:22;;;;;;;3.70;3.10;;;;;;;;;;6184441;23;20202;-91
2021/12/12 11:43:58;;;;;;;3.93;2.43;;;;;;;;;;6185517;23;20203;-91
2021/12/12 11:49:31;;;;;;;3.17;2.37;;;;;;;;;;6098240;23;20185;-91
2021/12/12 11:52:01;;;;;;;3.20;2.90;;;;;;;;;;6189627;23;20170;-91
2021/12/12 11:54:34;;;;;;;2.77;2.33;;;;;;;;;;6186912;23;20557;-91
2021/12/12 11:57:06;;;;;;;3.03;2.70;;;;;;;;;;6200491;23;20277;-94
2021/12/12 11:59:37;;;;;;;2.30;2.10;;;;;;;;;;6199982;23;20199;-93
2021/12/12 12:02:21;;;;;;;4.10;2.63;;;;;;;;;;6201512;23;20171;-92
2021/12/12 12:04:56;;;;;;;4.63;2.63;;;;;;;;;;6200688;23;20202;-91
2021/12/12 12:07:34;;;;;;;2.17;2.00;;;;;;;;;;6198471;23;20176;-94
2021/12/12 12:10:09;;;;;;;2.50;2.30;;;;;;;;;;6199385;23;20265;-94
2021/12/12 12:12:42;;;;;;;2.57;2.37;;;;;;;;;;6195940;23;20543;-94
2021/12/12 12:15:14;;;;;;;2.60;2.37;;;;;;;;;;6198562;23;20183;-93
2021/12/12 12:17:48;;;;;;;2.67;2.17;;;;;;;;;;6196531;23;20202;-93
2021/12/12 12:20:23;;;;;;;3.27;2.30;;;;;;;;;;6194107;23;20823;-92
2021/12/12 12:22:54;;;;;;;3.20;2.90;;;;;;;;;;6196641;23;20190;-93
2021/12/12 12:25:28;;;;;;;2.83;2.43;;;;;;;;;;6196898;23;20179;-93
2021/12/12 12:27:57;;;;;;;2.60;2.40;;;;;;;;;;6199334;23;20189;-90
2021/12/12 12:30:45;;;;;;;5.03;2.50;;;;;;;;;;6195126;23;20194;-91
2021/12/12 18:29:32;;;;;;;8.57;5.47;;;;;;;;;;6211877;22;1370849;-91
2021/12/12 18:32:00;;;;;;;9.07;6.57;;;;;;;;;;6244856;23;20224;-91
2021/12/12 18:34:36;;;;;;;9.47;5.83;;;;;;;;;;6245724;22;20189;-91
2021/12/12 18:37:32;;;;;;;9.20;6.23;;;;;;;;;;6245016;22;20662;-90
2021/12/12 18:40:32;;;;;;;7.83;5.33;;;;;;;;;;6247810;22;20197;-90
2021/12/12 18:43:00;;;;;;;8.47;5.60;;;;;;;;;;6218402;23;20636;-90
2021/12/12 18:45:33;;;;;;;7.13;5.13;;;;;;;;;;6245580;22;20169;-91
2021/12/12 18:48:05;;;;;;;8.50;5.23;;;;;;;;;;6245712;22;20177;-91
2021/12/12 18:50:33;;;;;;;7.93;5.57;;;;;;;;;;6245424;22;20197;-91
2021/12/12 18:53:02;;;;;;;5.97;4.93;;;;;;;;;;6245955;22;20177;-91
2021/12/12 18:55:31;;;;;;;7.93;5.33;;;;;;;;;;6246044;22;20244;-91
2021/12/12 18:58:00;;;;;;;10.07;5.47;;;;;;;;;;6245794;22;20178;-92
2021/12/12 19:00:29;;;;;;;7.50;5.27;;;;;;;;;;6246507;22;20251;-92
2021/12/12 19:03:00;;;;;;;8.83;5.50;;;;;;;;;;6246128;22;20553;-91
2021/12/12 19:05:30;;;;;;;11.40;6.13;;;;;;;;;;6245888;22;20177;-92
2021/12/12 19:08:09;;;;;;;8.03;5.13;;;;;;;;;;6246264;22;20671;-91
2021/12/12 19:10:37;;;;;;;7.40;5.33;;;;;;;;;;6246955;22;20197;-92
2021/12/12 19:13:06;;;;;;;9.60;5.57;;;;;;;;;;6246389;22;20504;-92
2021/12/12 19:15:41;;;;;;;7.03;5.50;;;;;;;;;;6246982;22;20189;-92
2021/12/12 19:18:11;;;;;;;7.17;4.80;;;;;;;;;;6246803;22;20169;-92
2021/12/12 19:20:54;;;;;;;6.80;4.80;;;;;;;;;;6245481;22;20247;-92
2021/12/12 19:23:30;;;;;;;6.70;5.00;;;;;;;;;;6245983;22;20239;-92
2021/12/12 19:25:58;;;;;;;6.60;4.77;;;;;;;;;;6245996;22;20173;-92
2021/12/12 19:28:29;;;;;;;6.27;4.20;;;;;;;;;;6245523;22;20188;-91
2021/12/12 19:30:59;;;;;;;8.37;4.33;;;;;;;;;;6245930;22;20876;-92
2021/12/12 19:33:30;;;;;;;5.50;3.40;;;;;;;;;;6245737;22;20173;-92
2021/12/12 19:35:58;;;;;;;4.17;3.50;;;;;;;;;;6245755;22;20272;-91
2021/12/12 19:38:28;;;;;;;5.67;3.57;;;;;;;;;;6245449;22;20180;-92
2021/12/12 19:40:57;;;;;;;9.57;4.53;;;;;;;;;;6245386;22;20550;-92
2021/12/12 19:43:26;;;;;;;7.60;4.47;;;;;;;;;;6245631;22;20177;-91
2021/12/12 19:45:55;;;;;;;4.77;3.20;;;;;;;;;;6245865;22;20170;-92
2021/12/12 19:48:23;;;;;;;4.67;3.20;;;;;;;;;;6245550;22;20178;-92
2021/12/12 19:50:55;;;;;;;6.23;3.60;;;;;;;;;;6245634;22;20206;-91
2021/12/12 19:53:25;;;;;;;3.97;2.70;;;;;;;;;;6246119;22;20177;-92
2021/12/12 19:55:55;;;;;;;4.17;3.37;;;;;;;;;;6245684;22;20235;-92
2021/12/12 19:58:26;;;;;;;5.67;3.03;;;;;;;;;;6245462;22;20173;-92
2021/12/12 20:00:55;;;;;;;3.43;3.03;;;;;;;;;;6245691;22;20199;-92
2021/12/12 20:03:45;;;;;;;3.93;3.30;;;;;;;;;;6245949;22;20169;-92
2021/12/12 20:06:16;;;;;;;3.67;2.67;;;;;;;;;;6245583;22;20235;-92
2021/12/12 20:08:46;;;;;;;4.03;3.10;;;;;;;;;;6246605;22;20177;-92
2021/12/12 20:11:15;;;;;;;5.70;3.10;;;;;;;;;;6247525;22;20215;-90
2021/12/12 20:13:47;;;;;;;3.33;2.50;;;;;;;;;;6245393;22;20173;-92
2021/12/12 20:16:15;;;;;;;5.03;2.80;;;;;;;;;;6245472;22;20243;-91
2021/12/12 20:18:43;;;;;;;4.67;3.17;;;;;;;;;;6245173;22;20181;-91
2021/12/12 20:21:10;;;;;;;3.07;2.70;;;;;;;;;;6245229;22;20215;-91
2021/12/12 20:23:39;;;;;;;3.47;2.67;;;;;;;;;;6245187;22;20812;-91
2021/12/12 20:26:09;;;;;;;3.63;2.60;;;;;;;;;;6245130;22;20258;-91
2021/12/12 20:28:37;;;;;;;4.67;2.90;;;;;;;;;;6245994;22;20192;-92
2021/12/12 20:31:06;;;;;;;3.00;2.63;;;;;;;;;;6245310;22;20259;-92
2021/12/12 20:33:35;;;;;;;2.90;2.70;;;;;;;;;;6245396;22;20180;-92
2021/12/12 20:36:05;;;;;;;4.53;2.80;;;;;;;;;;6245099;22;20193;-92
2021/12/12 20:38:34;;;;;;;5.47;3.07;;;;;;;;;;6245796;22;20177;-92
2021/12/12 20:41:06;;;;;;;4.10;2.90;;;;;;;;;;6245354;22;20197;-92
2021/12/12 20:43:35;;;;;;;4.17;3.77;;;;;;;;;;6245412;22;20231;-92
2021/12/12 20:46:04;;;;;;;3.57;2.97;;;;;;;;;;6245484;22;20632;-91
2021/12/12 20:48:34;;;;;;;5.60;2.47;;;;;;;;;;6245466;22;20212;-92
2021/12/12 20:51:03;;;;;;;3.43;2.90;;;;;;;;;;6245193;22;20197;-92
2021/12/12 20:53:32;;;;;;;5.63;3.00;;;;;;;;;;6245430;22;20173;-92
2021/12/12 20:56:01;;;;;;;5.43;3.40;;;;;;;;;;6245948;22;20235;-91
2021/12/12 20:58:32;;;;;;;2.93;2.63;;;;;;;;;;6247696;22;20180;-91
2021/12/12 21:01:13;;;;;;;3.83;3.07;;;;;;;;;;6248505;22;20197;-91
2021/12/12 21:03:42;;;;;;;5.20;3.30;;;;;;;;;;6247467;22;20165;-92
2021/12/12 21:06:11;;;;;;;3.37;3.07;;;;;;;;;;6247596;22;20177;-92
2021/12/12 21:08:41;;;;;;;4.13;3.53;;;;;;;;;;6246995;22;20177;-92
2021/12/12 21:11:10;;;;;;;5.40;4.00;;;;;;;;;;6246950;22;20197;-92
2021/12/12 21:13:43;;;;;;;4.60;3.13;;;;;;;;;;6247507;22;20204;-91
2021/12/12 21:16:13;;;;;;;5.20;3.20;;;;;;;;;;6247237;22;20209;-92
2021/12/12 21:18:43;;;;;;;4.67;3.10;;;;;;;;;;6247849;22;20173;-92
2021/12/12 21:21:14;;;;;;;4.80;2.97;;;;;;;;;;6246920;22;20198;-92